Sign in

Advertising

Info

Aviation weather - KDAB

METAR KDAB 280453Z 29010KT 10SM FEW200 14/09 A2999 RMK AO2 SLP154 T01390089 402610139

TAF KDAB 272347Z 2800/2824 27013KT P6SM FEW015 BKN040 OVC200 FM280200 29011G19KT P6SM SCT035 BKN250 FM280800 32011KT P6SM SCT250 FM281800 31012G18KT P6SM SKC FM282200 30011KT P6SM FEW250

ADDS Experimental. Do not use for flight-related decisions.

Javascript required. Ce site nécessite javascript